Terminal Aerodrome Forecast
Issued by NWS Boston, MA

Home | Current Version | Previous Version | Text Only | Print | Product List | Glossary On
Versions: 1 2 3 4 5 6 7 8 9 10 11 12 13 14 15 16 17 18 19 20 21 22 23 24 25 26 27 28 29 30 31 32 33 34 35 36 37 38 39 40
145
FTUS41 KBOX 050537
TAFPVD
TAF
KPVD 050537Z 0506/0606 03004KT P6SM OVC200
     FM050800 00000KT P6SM BKN120
     FM051100 VRB03KT 3SM -SN OVC090
     FM051200 VRB03KT 3SM -SN OVC020
     FM051400 VRB03KT 6SM BR VCSH OVC015
     FM052000 22005KT P6SM BKN060
     FM052200 27006KT P6SM SCT060
     FM060300 31007KT P6SM FEW250=

USA.gov is the U.S. government's official web portal to all federal, state and local government web resources and services.